createdAt,value
2019-01-31T00:00:48.305Z,741.1
2019-01-31T00:01:50.731Z,741.1
2019-01-31T00:02:52.892Z,741.5
2019-01-31T00:03:55.047Z,741.2
2019-01-31T00:04:57.518Z,741.2
2019-01-31T00:05:59.935Z,741.5
2019-01-31T00:07:02.380Z,741.7
2019-01-31T00:08:04.795Z,741.9
2019-01-31T00:09:07.217Z,741.6
2019-01-31T00:10:09.362Z,741.8
2019-01-31T00:11:11.527Z,741.9
2019-01-31T00:12:13.957Z,742
2019-01-31T00:13:16.104Z,741.7
2019-01-31T00:14:18.535Z,741.9
2019-01-31T00:15:20.958Z,741.9
2019-01-31T00:16:23.394Z,742.2
2019-01-31T00:17:25.815Z,742.4
2019-01-31T00:18:28.239Z,742.1
2019-01-31T00:19:30.665Z,742.6
2019-01-31T00:20:33.105Z,742.3
2019-01-31T00:21:35.540Z,742.3
2019-01-31T00:22:37.995Z,742.2
2019-01-31T00:23:40.433Z,742.2
2019-01-31T00:24:42.866Z,742.4
2019-01-31T00:25:45.292Z,742.4
2019-01-31T00:26:47.475Z,742.3
2019-01-31T00:27:49.905Z,742.8
2019-01-31T00:28:52.052Z,742.6
2019-01-31T00:29:54.472Z,742.7
2019-01-31T00:30:56.895Z,743
2019-01-31T00:31:59.053Z,743.1
2019-01-31T00:33:01.211Z,743.1
2019-01-31T00:34:03.645Z,743.2
2019-01-31T00:35:05.795Z,743.1
2019-01-31T00:36:07.935Z,743.4
2019-01-31T00:37:10.366Z,743.2
2019-01-31T00:38:12.795Z,743.2
2019-01-31T00:39:14.961Z,743.5
2019-01-31T00:40:17.427Z,743.7
2019-01-31T00:41:19.843Z,743.6
2019-01-31T00:42:22.375Z,743.7
2019-01-31T00:43:24.804Z,744
2019-01-31T00:44:26.991Z,743.4
2019-01-31T00:45:29.431Z,743.6
2019-01-31T00:46:31.953Z,743.3
2019-01-31T00:47:34.127Z,743.3
2019-01-31T00:48:36.549Z,743.3
2019-01-31T00:49:38.721Z,743.6
2019-01-31T00:50:41.145Z,743.3
2019-01-31T00:51:43.117Z,743.5
2019-01-31T00:52:45.267Z,743.6
2019-01-31T00:53:47.680Z,743.5
2019-01-31T00:54:49.823Z,743.7
2019-01-31T00:55:52.252Z,743.9
2019-01-31T00:56:54.683Z,744
2019-01-31T00:57:57.102Z,743.7
2019-01-31T00:58:59.264Z,743.9
2019-01-31T01:00:01.693Z,743.6
2019-01-31T01:01:03.874Z,743.7
2019-01-31T01:02:06.025Z,743.7
2019-01-31T01:03:08.456Z,743.8
2019-01-31T01:04:10.884Z,743.8
2019-01-31T01:05:13.308Z,743.8
2019-01-31T01:06:15.730Z,743.9
2019-01-31T01:07:18.160Z,743.6
2019-01-31T01:08:20.591Z,744.1
2019-01-31T01:09:23.031Z,744.2
2019-01-31T01:10:25.185Z,744
2019-01-31T01:11:27.621Z,744.1
2019-01-31T01:12:30.050Z,743.7
2019-01-31T01:13:31.938Z,743.7
2019-01-31T01:14:34.361Z,743.8
2019-01-31T01:15:36.531Z,743.9
2019-01-31T01:16:38.695Z,743.5
2019-01-31T01:17:41.122Z,744
2019-01-31T01:18:43.261Z,743.9
2019-01-31T01:19:45.140Z,743.8
2019-01-31T01:20:47.292Z,743.8
2019-01-31T01:21:49.725Z,743.9
2019-01-31T01:22:52.156Z,743.6
2019-01-31T01:23:54.582Z,743.9
2019-01-31T01:24:57.014Z,743.7
2019-01-31T01:25:59.179Z,743.5
2019-01-31T01:27:01.666Z,743.5
2019-01-31T01:28:04.077Z,743.1
2019-01-31T01:29:06.512Z,743.1
2019-01-31T01:30:08.944Z,742.7
2019-01-31T01:31:11.453Z,743.2
2019-01-31T01:32:13.623Z,743.2
2019-01-31T01:33:16.048Z,743.4
2019-01-31T01:34:18.222Z,743.5
2019-01-31T01:35:20.384Z,743.4
2019-01-31T01:36:22.805Z,743.5
2019-01-31T01:37:25.229Z,743.4
2019-01-31T01:38:27.377Z,743.5
2019-01-31T01:39:29.530Z,743.5
2019-01-31T01:40:31.681Z,743.6
2019-01-31T01:41:33.837Z,743.5
2019-01-31T01:42:36.258Z,743.7
2019-01-31T01:43:38.685Z,743.3
2019-01-31T01:44:41.211Z,743.8
2019-01-31T01:45:43.371Z,743.8
2019-01-31T01:46:45.798Z,743.5
2019-01-31T01:47:47.953Z,744
2019-01-31T01:48:50.382Z,744
2019-01-31T01:49:52.804Z,744.3
2019-01-31T01:50:55.230Z,744.1
2019-01-31T01:51:57.390Z,744
2019-01-31T01:52:59.811Z,744
2019-01-31T01:54:02.239Z,744.5
2019-01-31T01:55:04.664Z,744.5
2019-01-31T01:56:07.088Z,744.7
2019-01-31T01:57:09.503Z,744.8
2019-01-31T01:58:11.653Z,744.7
2019-01-31T01:59:13.793Z,744.9
2019-01-31T02:00:15.964Z,744.7
2019-01-31T02:01:18.441Z,744.6
2019-01-31T02:02:20.888Z,744.8
2019-01-31T02:03:23.322Z,745
2019-01-31T02:04:25.735Z,745
2019-01-31T02:05:28.170Z,745.2
2019-01-31T02:06:30.600Z,745.2
2019-01-31T02:07:32.754Z,745.2
2019-01-31T02:08:35.180Z,745.8
2019-01-31T02:09:37.631Z,745.7
2019-01-31T02:10:39.780Z,746.1
2019-01-31T02:11:42.210Z,745.9
2019-01-31T02:12:44.364Z,746.2
2019-01-31T02:13:46.794Z,746.6
2019-01-31T02:14:48.654Z,746.4
2019-01-31T02:15:50.550Z,746.6
2019-01-31T02:16:53.574Z,746.4
2019-01-31T02:17:56.014Z,746.7
2019-01-31T02:18:58.174Z,746.6
2019-01-31T02:20:00.044Z,746.8
2019-01-31T02:21:02.476Z,746.8
2019-01-31T02:22:04.628Z,747.4
2019-01-31T02:23:07.064Z,748
2019-01-31T02:24:09.052Z,747.8
2019-01-31T02:25:11.194Z,747.4
2019-01-31T02:26:13.432Z,748.1
2019-01-31T02:27:15.294Z,748.3
2019-01-31T02:28:17.161Z,748.6
2019-01-31T02:29:19.334Z,748.5
2019-01-31T02:30:21.215Z,748.3
2019-01-31T02:31:23.099Z,748.4
2019-01-31T02:32:25.522Z,748.6
2019-01-31T02:33:27.674Z,749
2019-01-31T02:34:30.099Z,749.1
2019-01-31T02:35:32.527Z,749.2
2019-01-31T02:36:34.952Z,748.8
2019-01-31T02:37:37.102Z,748.7
2019-01-31T02:38:39.519Z,749.6
2019-01-31T02:40:46.757Z,749.8
2019-01-31T02:41:49.283Z,750.1
2019-01-31T02:42:51.407Z,749.9
2019-01-31T02:43:53.832Z,749.9
2019-01-31T02:44:56.244Z,750.3
2019-01-31T02:45:58.678Z,750.3
2019-01-31T02:47:01.096Z,750.4
2019-01-31T02:48:03.543Z,750.1
2019-01-31T02:49:05.754Z,750.5
2019-01-31T02:50:08.158Z,750.6
2019-01-31T02:51:10.027Z,750.8
2019-01-31T02:52:12.456Z,751
2019-01-31T02:53:14.886Z,750.7
2019-01-31T02:54:17.319Z,750.9
2019-01-31T02:55:19.476Z,750.9
2019-01-31T02:56:21.827Z,750.5
2019-01-31T02:57:24.258Z,751.3
2019-01-31T02:58:26.695Z,751
2019-01-31T02:59:29.114Z,751.2
2019-01-31T03:00:31.429Z,751.7
2019-01-31T03:01:33.852Z,751.7
2019-01-31T03:02:35.726Z,751.6
2019-01-31T03:03:38.151Z,752
2019-01-31T03:04:40.294Z,751.9
2019-01-31T03:05:42.714Z,752.2
2019-01-31T03:06:44.855Z,752.2
2019-01-31T03:07:47.285Z,751.9
2019-01-31T03:08:49.704Z,752.1
2019-01-31T03:10:56.845Z,752.6
2019-01-31T03:11:58.992Z,752.7
2019-01-31T03:13:01.163Z,752.5
2019-01-31T03:15:08.554Z,752.9
2019-01-31T03:16:10.707Z,753.2
2019-01-31T03:17:13.123Z,753.1
2019-01-31T03:18:15.554Z,753
2019-01-31T03:19:17.724Z,753.2
2019-01-31T03:20:20.145Z,753
2019-01-31T03:21:22.567Z,753
2019-01-31T03:22:24.699Z,753
2019-01-31T03:23:26.308Z,753
2019-01-31T03:24:28.740Z,753.2
2019-01-31T03:25:31.197Z,753.5
2019-01-31T03:26:33.622Z,753.7
2019-01-31T03:27:36.054Z,753.7
2019-01-31T03:28:38.029Z,753.6
2019-01-31T03:29:40.434Z,754
2019-01-31T03:30:42.864Z,754.1
2019-01-31T03:31:45.330Z,754
2019-01-31T03:32:47.943Z,753.6
2019-01-31T03:33:50.366Z,754
2019-01-31T03:34:52.795Z,754.2
2019-01-31T03:35:55.284Z,754
2019-01-31T03:36:57.722Z,754
2019-01-31T03:38:00.146Z,754.5
2019-01-31T03:39:02.561Z,754.3
2019-01-31T03:41:10.024Z,754.5
2019-01-31T03:42:12.464Z,754.9
2019-01-31T03:43:14.882Z,754.8
2019-01-31T03:44:17.074Z,754.7
2019-01-31T03:45:19.515Z,754.8
2019-01-31T03:46:21.942Z,754.9
2019-01-31T03:47:24.377Z,754.5
2019-01-31T03:48:26.514Z,755.1
2019-01-31T03:49:28.660Z,754.9
2019-01-31T03:50:30.821Z,754.9
2019-01-31T03:51:32.954Z,754.8
2019-01-31T03:52:35.380Z,755
2019-01-31T03:53:37.814Z,755.4
2019-01-31T03:54:40.250Z,755.5
2019-01-31T03:55:42.398Z,755.7
2019-01-31T03:56:44.822Z,755.9
2019-01-31T03:57:47.242Z,755.6
2019-01-31T03:58:49.460Z,756
2019-01-31T03:59:51.603Z,756.5
2019-01-31T04:00:53.735Z,756.3
2019-01-31T04:01:56.159Z,756.3
2019-01-31T04:02:58.295Z,756.3
2019-01-31T04:04:00.714Z,756.1
2019-01-31T04:05:02.873Z,756.2
2019-01-31T04:06:05.290Z,756.6
2019-01-31T04:07:07.434Z,756.8
2019-01-31T04:08:09.859Z,756.9
2019-01-31T04:09:12.283Z,756.7
2019-01-31T04:11:19.414Z,757.1
2019-01-31T04:12:21.834Z,757.3
2019-01-31T04:13:23.964Z,757.5
2019-01-31T04:15:31.365Z,757.9
2019-01-31T04:16:33.784Z,758
2019-01-31T04:17:35.674Z,758
2019-01-31T04:18:38.022Z,758.3
2019-01-31T04:19:40.472Z,758
2019-01-31T04:20:42.617Z,758.2
2019-01-31T04:21:44.860Z,758.7
2019-01-31T04:22:46.992Z,757.9
2019-01-31T04:23:48.320Z,758.4
2019-01-31T04:24:50.473Z,758.4
2019-01-31T04:25:52.602Z,758
2019-01-31T04:26:55.122Z,758.2
2019-01-31T04:27:57.575Z,758.7
2019-01-31T04:28:59.994Z,758.1
2019-01-31T04:30:01.696Z,758.2
2019-01-31T04:31:03.861Z,758.8
2019-01-31T04:32:06.282Z,758.6
2019-01-31T04:33:08.706Z,758.6
2019-01-31T04:34:10.850Z,758.7
2019-01-31T04:35:13.296Z,758.3
2019-01-31T04:36:15.723Z,758.4
2019-01-31T04:37:18.255Z,758.7
2019-01-31T04:38:21.999Z,758.6
2019-01-31T04:39:24.128Z,758.5
2019-01-31T04:41:31.366Z,758.7
2019-01-31T04:42:33.576Z,758.3
2019-01-31T04:43:35.743Z,758.4
2019-01-31T04:44:37.923Z,758.3
2019-01-31T04:45:40.366Z,758.3
2019-01-31T04:46:42.534Z,758.1
2019-01-31T04:47:45.102Z,758.3
2019-01-31T04:48:47.528Z,758.7
2019-01-31T04:49:49.673Z,758.3
2019-01-31T04:50:52.101Z,758.3
2019-01-31T04:51:53.955Z,758.7
2019-01-31T04:52:56.377Z,758.6
2019-01-31T04:53:58.794Z,759
2019-01-31T04:55:01.247Z,758.9
2019-01-31T04:56:03.411Z,758.5
2019-01-31T04:57:05.835Z,758.5
2019-01-31T04:58:07.839Z,758.4
2019-01-31T04:59:10.285Z,758.7
2019-01-31T05:00:12.718Z,758.6
2019-01-31T05:01:14.874Z,758.6
2019-01-31T05:02:17.395Z,758.7
2019-01-31T05:03:19.812Z,758
2019-01-31T05:04:21.686Z,758.1
2019-01-31T05:05:24.103Z,757.8
2019-01-31T05:06:26.524Z,757.6
2019-01-31T05:07:28.413Z,757.9
2019-01-31T05:09:35.285Z,758.1
2019-01-31T05:11:42.537Z,758.1
2019-01-31T05:12:44.967Z,758
2019-01-31T05:13:47.210Z,758.3
2019-01-31T05:14:49.370Z,758.3
2019-01-31T05:15:51.794Z,758.2
2019-01-31T05:16:54.349Z,758.1
2019-01-31T05:17:56.495Z,758.3
2019-01-31T05:18:58.938Z,758
2019-01-31T05:20:01.362Z,758.7
2019-01-31T05:21:03.535Z,758.1
2019-01-31T05:22:05.962Z,757.9
2019-01-31T05:23:08.384Z,757.8
2019-01-31T05:24:10.534Z,757.6
2019-01-31T05:25:12.690Z,757.9
2019-01-31T05:26:14.584Z,757.9
2019-01-31T05:27:17.013Z,757.7
2019-01-31T05:28:19.295Z,758.2
2019-01-31T05:29:21.733Z,758.4
2019-01-31T05:30:23.893Z,758.5
2019-01-31T05:31:26.315Z,758.3
2019-01-31T05:32:28.744Z,758.4
2019-01-31T05:33:30.913Z,758.7
2019-01-31T05:34:33.355Z,758.6
2019-01-31T05:35:35.794Z,758.4
2019-01-31T05:36:38.246Z,758.3
2019-01-31T05:37:40.260Z,758.3
2019-01-31T05:38:42.406Z,758.3
2019-01-31T05:39:44.551Z,758.6
2019-01-31T05:41:51.961Z,758.7
2019-01-31T05:42:54.404Z,758.8
2019-01-31T05:43:56.838Z,758.5
2019-01-31T05:44:59.281Z,758.5
2019-01-31T05:46:01.443Z,758.9
2019-01-31T05:47:03.930Z,758.7
2019-01-31T05:48:06.169Z,758.9
2019-01-31T05:49:08.599Z,759.6
2019-01-31T05:50:11.016Z,759.1
2019-01-31T05:51:13.203Z,759
2019-01-31T05:52:15.632Z,759.1
2019-01-31T05:53:17.794Z,759
2019-01-31T05:54:19.941Z,759.2
2019-01-31T05:55:22.095Z,759.3
2019-01-31T05:56:24.513Z,759.1
2019-01-31T05:57:26.942Z,759
2019-01-31T05:58:29.364Z,759.2
2019-01-31T05:59:31.508Z,759.4
2019-01-31T06:00:33.927Z,759.1
2019-01-31T06:01:36.351Z,759.1
2019-01-31T06:02:38.774Z,759.1
2019-01-31T06:03:40.933Z,759.3
2019-01-31T06:04:43.174Z,759.3
2019-01-31T06:05:45.607Z,759.3
2019-01-31T06:06:47.777Z,758.9
2019-01-31T06:07:49.916Z,759
2019-01-31T06:08:52.438Z,759.2
2019-01-31T06:09:54.942Z,758.8
2019-01-31T06:12:02.083Z,758.8
2019-01-31T06:13:04.522Z,758.8
2019-01-31T06:14:06.691Z,759.1
2019-01-31T06:15:09.159Z,758.6
2019-01-31T06:16:11.589Z,758.3
2019-01-31T06:17:14.013Z,758.7
2019-01-31T06:18:16.179Z,758.6
2019-01-31T06:19:18.726Z,758.5
2019-01-31T06:20:20.877Z,758.6
2019-01-31T06:21:23.013Z,758.3
2019-01-31T06:22:26.768Z,757.9
2019-01-31T06:23:28.928Z,758.2
2019-01-31T06:24:31.351Z,758.2
2019-01-31T06:25:33.497Z,757.8
2019-01-31T06:26:35.646Z,758
2019-01-31T06:27:37.799Z,757.9
2019-01-31T06:28:39.672Z,758.3
2019-01-31T06:29:42.167Z,757.7
2019-01-31T06:30:44.096Z,757.7
2019-01-31T06:31:46.254Z,758
2019-01-31T06:32:48.686Z,757.8
2019-01-31T06:33:51.124Z,758
2019-01-31T06:34:53.279Z,757.7
2019-01-31T06:35:55.446Z,757.3
2019-01-31T06:36:57.863Z,757.7
2019-01-31T06:38:00.283Z,757.7
2019-01-31T06:39:02.164Z,757.5
2019-01-31T06:40:04.603Z,757.4
2019-01-31T06:42:13.366Z,757.3
2019-01-31T06:43:15.524Z,756.6
2019-01-31T06:44:17.678Z,756.9
2019-01-31T06:45:20.102Z,756.5
2019-01-31T06:46:22.524Z,756.6
2019-01-31T06:47:24.653Z,756.6
2019-01-31T06:48:26.587Z,756.8
2019-01-31T06:49:29.022Z,756.1
2019-01-31T06:50:31.442Z,756.5
2019-01-31T06:51:33.035Z,756
2019-01-31T06:52:35.209Z,756.1
2019-01-31T06:53:37.642Z,756.4
2019-01-31T06:54:40.178Z,756.1
2019-01-31T06:55:42.599Z,756.4
2019-01-31T06:56:44.764Z,755.6
2019-01-31T06:57:46.914Z,756.1
2019-01-31T06:58:49.066Z,756.1
2019-01-31T06:59:51.527Z,755.8
2019-01-31T07:00:53.948Z,755.8
2019-01-31T07:01:56.115Z,755.7
2019-01-31T07:02:58.267Z,755.8
2019-01-31T07:04:00.405Z,755.9
2019-01-31T07:05:02.563Z,756.1
2019-01-31T07:06:04.989Z,756
2019-01-31T07:07:07.145Z,756.1
2019-01-31T07:08:09.585Z,756.5
2019-01-31T07:09:11.741Z,755.9
2019-01-31T07:10:14.165Z,756.4
2019-01-31T07:11:16.037Z,756.9
2019-01-31T07:12:18.211Z,757
2019-01-31T07:13:20.359Z,757.3
2019-01-31T07:14:22.780Z,757.5
2019-01-31T07:15:25.237Z,757.9
2019-01-31T07:16:27.657Z,758.3
2019-01-31T07:17:29.807Z,758.5
2019-01-31T07:18:31.794Z,758.5
2019-01-31T07:19:34.031Z,758.5
2019-01-31T07:20:36.467Z,758.6
2019-01-31T07:21:38.904Z,758.6
2019-01-31T07:22:41.321Z,758.6
2019-01-31T07:24:49.801Z,758.6
2019-01-31T07:25:52.226Z,758.3
2019-01-31T07:26:54.653Z,758.1
2019-01-31T07:27:57.075Z,758.6
2019-01-31T07:28:59.492Z,757.9
2019-01-31T07:30:01.957Z,757.7
2019-01-31T07:31:04.111Z,758.1
2019-01-31T07:32:06.541Z,757.7
2019-01-31T07:33:08.789Z,757.6
2019-01-31T07:34:11.213Z,758.1
2019-01-31T07:35:13.643Z,757.5
2019-01-31T07:36:15.891Z,757.4
2019-01-31T07:37:17.780Z,757.4
2019-01-31T07:38:20.201Z,757.6
2019-01-31T07:39:22.355Z,757.2
2019-01-31T07:40:24.516Z,757.2
2019-01-31T07:41:26.391Z,757.5
2019-01-31T07:42:28.811Z,757.6
2019-01-31T07:43:31.232Z,757.2
2019-01-31T07:44:33.661Z,757.4
2019-01-31T07:45:35.817Z,757.3
2019-01-31T07:46:38.239Z,757.5
2019-01-31T07:47:40.093Z,757.3
2019-01-31T07:48:41.953Z,757.3
2019-01-31T07:49:44.096Z,757.4
2019-01-31T07:50:46.241Z,757.5
2019-01-31T07:51:48.412Z,757.4
2019-01-31T07:52:50.868Z,757.4
2019-01-31T07:53:53.293Z,757.6
2019-01-31T07:54:55.716Z,757.3
2019-01-31T07:55:58.147Z,757.7
2019-01-31T07:57:00.565Z,757.3
2019-01-31T07:58:02.987Z,757.3
2019-01-31T07:59:05.409Z,757.3
2019-01-31T08:00:07.830Z,757
2019-01-31T08:01:10.263Z,757.1
2019-01-31T08:02:12.433Z,757.1
2019-01-31T08:03:14.892Z,757.4
2019-01-31T08:04:17.340Z,757
2019-01-31T08:05:19.823Z,757.4
2019-01-31T08:06:22.265Z,757.6
2019-01-31T08:07:24.428Z,757.4
2019-01-31T08:08:26.335Z,757.3
2019-01-31T08:09:28.483Z,757.7
2019-01-31T08:10:30.733Z,758
2019-01-31T08:11:33.164Z,758
2019-01-31T08:12:36.113Z,758.1
2019-01-31T08:13:38.536Z,758
2019-01-31T08:14:40.688Z,758.3
2019-01-31T08:15:43.107Z,757.5
2019-01-31T08:16:44.704Z,757.3
2019-01-31T08:17:46.555Z,757
2019-01-31T08:18:48.973Z,756.9
2019-01-31T08:19:51.125Z,756.9
2019-01-31T08:20:52.995Z,756.3
2019-01-31T08:21:55.157Z,756
2019-01-31T08:23:00.051Z,755.9
2019-01-31T08:24:03.948Z,756
2019-01-31T08:25:05.835Z,755.9
2019-01-31T08:26:08.259Z,756.2
2019-01-31T08:27:10.456Z,756
2019-01-31T08:28:12.615Z,756
2019-01-31T08:29:14.779Z,755.9
2019-01-31T08:30:17.220Z,756.2
2019-01-31T08:31:19.665Z,755.6
2019-01-31T08:32:21.530Z,755.6
2019-01-31T08:33:23.960Z,756.3
2019-01-31T08:34:26.135Z,756.2
2019-01-31T08:35:28.298Z,756.5
2019-01-31T08:36:30.723Z,756.9
2019-01-31T08:37:32.895Z,756.9
2019-01-31T08:39:40.804Z,757.4
2019-01-31T08:40:43.223Z,757.2
2019-01-31T08:41:45.076Z,757.1
2019-01-31T08:42:47.279Z,757.5
2019-01-31T08:43:49.696Z,757.6
2019-01-31T08:44:52.115Z,757.1
2019-01-31T08:45:54.553Z,757.3
2019-01-31T08:46:56.425Z,757.3
2019-01-31T08:47:58.854Z,757
2019-01-31T08:49:01.284Z,757.1
2019-01-31T08:50:03.421Z,757.2
2019-01-31T08:51:05.565Z,757.1
2019-01-31T08:52:07.702Z,757.1
2019-01-31T08:53:10.152Z,757
2019-01-31T08:54:12.584Z,756.6
2019-01-31T08:55:14.756Z,756.3
2019-01-31T08:56:16.930Z,756.2
2019-01-31T08:57:19.352Z,756.6
2019-01-31T08:58:21.494Z,756.4
2019-01-31T08:59:23.920Z,756.5
2019-01-31T09:00:26.344Z,756.3
2019-01-31T09:01:28.761Z,756.3
2019-01-31T09:02:30.922Z,756
2019-01-31T09:03:33.069Z,755.9
2019-01-31T09:04:35.506Z,755.7
2019-01-31T09:05:37.404Z,755.4
2019-01-31T09:06:39.023Z,755.8
2019-01-31T09:07:40.915Z,755.9
2019-01-31T09:08:43.380Z,756
2019-01-31T09:09:45.812Z,756.2
2019-01-31T09:10:48.234Z,756.7
2019-01-31T09:11:50.664Z,756.6
2019-01-31T09:12:52.829Z,756.3
2019-01-31T09:13:55.253Z,756.2
2019-01-31T09:14:57.392Z,756.8
2019-01-31T09:15:59.822Z,756.6
2019-01-31T09:17:02.254Z,756.4
2019-01-31T09:18:04.420Z,756.2
2019-01-31T09:19:06.590Z,756
2019-01-31T09:20:09.016Z,756
2019-01-31T09:21:11.173Z,755.6
2019-01-31T09:22:13.608Z,755.7
2019-01-31T09:23:16.038Z,755.3
2019-01-31T09:24:18.203Z,755.9
2019-01-31T09:25:20.640Z,755.6
2019-01-31T09:26:23.182Z,755.8
2019-01-31T09:27:25.326Z,755.7
2019-01-31T09:28:27.766Z,755.9
2019-01-31T09:29:30.194Z,755.5
2019-01-31T09:30:32.624Z,755.9
2019-01-31T09:31:34.506Z,755.5
2019-01-31T09:32:37.257Z,755.8
2019-01-31T09:33:39.420Z,755.7
2019-01-31T09:34:41.844Z,756
2019-01-31T09:35:43.994Z,755.6
2019-01-31T09:36:46.424Z,756
2019-01-31T09:37:48.310Z,755.8
2019-01-31T09:38:50.174Z,755.7
2019-01-31T09:39:52.054Z,755.7
2019-01-31T09:40:54.204Z,755.7
2019-01-31T09:41:56.632Z,755.5
2019-01-31T09:42:58.796Z,755.6
2019-01-31T09:44:00.954Z,755.3
2019-01-31T09:46:08.771Z,755.2
2019-01-31T09:47:11.210Z,755.1
2019-01-31T09:48:13.642Z,755.3
2019-01-31T09:49:15.824Z,754.9
2019-01-31T09:50:18.246Z,755.1
2019-01-31T09:51:20.674Z,755.1
2019-01-31T09:52:22.581Z,754.9
2019-01-31T09:53:25.037Z,755.3
2019-01-31T09:54:27.466Z,755.5
2019-01-31T09:55:29.355Z,755.1
2019-01-31T09:56:34.507Z,755.2
2019-01-31T09:57:38.720Z,755.3
2019-01-31T09:58:41.144Z,754.8
2019-01-31T09:59:43.660Z,754.8
2019-01-31T10:00:46.084Z,754.9
2019-01-31T10:01:48.235Z,754.7
2019-01-31T10:02:50.663Z,754.8
2019-01-31T10:03:52.525Z,754.8
2019-01-31T10:04:54.967Z,754.9
2019-01-31T10:05:57.132Z,754.6
2019-01-31T10:06:59.542Z,754.7
2019-01-31T10:08:01.691Z,754.8
2019-01-31T10:09:04.094Z,755.1
2019-01-31T10:10:06.677Z,755.2
2019-01-31T10:11:09.232Z,755.2
2019-01-31T10:12:11.785Z,754.9
2019-01-31T10:13:14.219Z,755
2019-01-31T10:14:16.857Z,755
2019-01-31T10:15:19.404Z,754.9
2019-01-31T10:16:22.116Z,755.4
2019-01-31T10:17:24.747Z,754.8
2019-01-31T10:18:27.476Z,755.1
2019-01-31T10:19:29.781Z,755
2019-01-31T10:20:32.389Z,754.9
2019-01-31T10:21:34.991Z,755
2019-01-31T10:22:37.733Z,755.3
2019-01-31T10:23:40.437Z,755.2
2019-01-31T10:24:43.242Z,755
2019-01-31T10:25:45.387Z,755
2019-01-31T10:26:47.810Z,755.3
2019-01-31T10:27:50.244Z,755.4
2019-01-31T10:28:52.776Z,755.5
2019-01-31T10:29:55.584Z,755.8
2019-01-31T10:30:58.014Z,755.9
2019-01-31T10:32:00.442Z,755.9
2019-01-31T10:33:02.585Z,756.2
2019-01-31T10:34:05.014Z,756.5
2019-01-31T10:35:07.434Z,756.4
2019-01-31T10:36:09.944Z,756.2
2019-01-31T10:37:11.800Z,756.4
2019-01-31T10:38:13.954Z,755.9
2019-01-31T10:39:16.397Z,756
2019-01-31T10:40:18.835Z,756.3
2019-01-31T10:41:21.264Z,756.5
2019-01-31T10:42:23.427Z,756.6
2019-01-31T10:43:25.844Z,756.8
2019-01-31T10:44:28.016Z,757
2019-01-31T10:45:29.903Z,756.5
2019-01-31T10:46:32.336Z,756.2
2019-01-31T10:47:34.771Z,756.7
2019-01-31T10:48:37.204Z,756.6
2019-01-31T10:49:39.620Z,756.8
2019-01-31T10:50:42.054Z,756.5
2019-01-31T10:51:43.954Z,756.7
2019-01-31T10:52:46.128Z,756.6
2019-01-31T10:53:48.551Z,756.9
2019-01-31T10:54:50.964Z,756.9
2019-01-31T10:55:53.414Z,756.8
2019-01-31T10:56:55.323Z,757
2019-01-31T10:57:57.751Z,756.8
2019-01-31T10:58:59.758Z,756.9
2019-01-31T11:00:02.209Z,756.8
2019-01-31T11:01:04.641Z,756.6
2019-01-31T11:02:07.068Z,756.7
2019-01-31T11:03:09.224Z,757.2
2019-01-31T11:04:10.826Z,756.8
2019-01-31T11:05:13.256Z,756.9
2019-01-31T11:06:15.116Z,757.2
2019-01-31T11:07:17.548Z,757
2019-01-31T11:08:19.970Z,757
2019-01-31T11:09:22.132Z,757
2019-01-31T11:10:24.556Z,756.8
2019-01-31T11:11:26.981Z,756.8
2019-01-31T11:12:29.397Z,756.9
2019-01-31T11:13:31.916Z,757.1
2019-01-31T11:14:34.360Z,757.1
2019-01-31T11:15:36.804Z,757.2
2019-01-31T11:16:38.947Z,757.3
2019-01-31T11:17:41.079Z,757.9
2019-01-31T11:18:43.224Z,758.2
2019-01-31T11:19:45.651Z,757.9
2019-01-31T11:20:47.806Z,758
2019-01-31T11:21:50.231Z,757.8
2019-01-31T11:22:52.671Z,757.7
2019-01-31T11:23:55.102Z,757.7
2019-01-31T11:24:57.534Z,758
2019-01-31T11:26:00.040Z,758.2
2019-01-31T11:27:02.475Z,759.3
2019-01-31T11:28:04.905Z,759.1
2019-01-31T11:29:06.778Z,759.1
2019-01-31T11:30:09.210Z,759.6
2019-01-31T11:31:11.642Z,759.7
2019-01-31T11:32:14.086Z,760.1
2019-01-31T11:33:16.231Z,759.9
2019-01-31T11:34:18.490Z,760.1
2019-01-31T11:35:20.692Z,760.3
2019-01-31T11:36:23.100Z,760
2019-01-31T11:37:25.244Z,760.1
2019-01-31T11:38:27.395Z,760.1
2019-01-31T11:39:29.819Z,760
2019-01-31T11:40:31.711Z,759.8
2019-01-31T11:41:34.134Z,760.1
2019-01-31T11:42:36.022Z,759.7
2019-01-31T11:43:38.454Z,760.2
2019-01-31T11:44:40.902Z,760.4
2019-01-31T11:45:43.062Z,760.1
2019-01-31T11:46:45.204Z,760.4
2019-01-31T11:47:47.377Z,760.1
2019-01-31T11:48:49.528Z,760.3
2019-01-31T11:49:52.015Z,760.1
2019-01-31T11:50:54.161Z,760.1
2019-01-31T11:51:56.592Z,759.9
2019-01-31T11:52:58.760Z,760.1
2019-01-31T11:54:00.920Z,759.7
2019-01-31T11:55:03.356Z,760
2019-01-31T11:56:05.778Z,759.9
2019-01-31T11:57:08.202Z,760
2019-01-31T11:58:10.359Z,760
2019-01-31T11:59:12.782Z,759.7
2019-01-31T12:00:14.928Z,760.1
2019-01-31T12:01:16.529Z,760.2
2019-01-31T12:02:18.964Z,759.8
2019-01-31T12:03:21.130Z,759.9
2019-01-31T12:04:23.554Z,760.2
2019-01-31T12:05:25.712Z,760.4
2019-01-31T12:06:28.161Z,760.6
2019-01-31T12:07:30.648Z,760.6
2019-01-31T12:08:32.607Z,760.1
2019-01-31T12:09:35.039Z,760.5
2019-01-31T12:10:36.900Z,760.9
2019-01-31T12:11:39.067Z,760.8
2019-01-31T12:13:46.896Z,761.2
2019-01-31T12:14:49.347Z,761
2019-01-31T12:15:51.782Z,760.8
2019-01-31T12:16:53.935Z,761
2019-01-31T12:17:56.359Z,761
2019-01-31T12:18:58.246Z,761.3
2019-01-31T12:20:00.805Z,761.7
2019-01-31T12:21:02.694Z,761.3
2019-01-31T12:22:05.124Z,761.1
2019-01-31T12:23:07.583Z,761.2
2019-01-31T12:25:14.686Z,761.4
2019-01-31T12:26:16.812Z,761.5
2019-01-31T12:27:19.231Z,761.4
2019-01-31T12:28:22.261Z,762
2019-01-31T12:29:24.679Z,761.8
2019-01-31T12:30:26.804Z,762.4
2019-01-31T12:31:29.364Z,762.2
2019-01-31T12:32:31.414Z,762.5
2019-01-31T12:33:33.576Z,762.5
2019-01-31T12:34:35.994Z,762.9
2019-01-31T12:35:38.441Z,762.9
2019-01-31T12:36:40.866Z,763.1
2019-01-31T12:37:42.757Z,763.5
2019-01-31T12:38:44.914Z,763.4
2019-01-31T12:39:47.353Z,763.7
2019-01-31T12:40:49.787Z,763.9
2019-01-31T12:41:52.217Z,764.2
2019-01-31T12:42:54.644Z,764.4
2019-01-31T12:43:57.077Z,764
2019-01-31T12:44:59.492Z,764
2019-01-31T12:46:01.924Z,764.3
2019-01-31T12:47:03.813Z,764.3
2019-01-31T12:48:05.979Z,764.7
2019-01-31T12:49:08.417Z,764.6
2019-01-31T12:50:10.939Z,765.2
2019-01-31T12:51:13.099Z,765.4
2019-01-31T12:52:15.524Z,765.4
2019-01-31T12:53:17.945Z,765.4
2019-01-31T12:54:20.097Z,765.4
2019-01-31T12:55:22.556Z,764.9
2019-01-31T12:56:24.708Z,765.5
2019-01-31T12:57:26.869Z,765.3
2019-01-31T12:59:34.347Z,765.3
2019-01-31T13:00:36.761Z,765.4
2019-01-31T13:01:38.642Z,765.9
2019-01-31T13:02:41.073Z,765.8
2019-01-31T13:03:43.505Z,765.9
2019-01-31T13:04:45.762Z,766.2
2019-01-31T13:05:47.912Z,766.3
2019-01-31T13:06:50.343Z,766.2
2019-01-31T13:07:52.875Z,766.5
2019-01-31T13:08:55.305Z,766.7
2019-01-31T13:09:57.731Z,766.8
2019-01-31T13:11:00.161Z,766.7
2019-01-31T13:12:02.602Z,766.7
2019-01-31T13:13:04.769Z,766.7
2019-01-31T13:14:07.199Z,766.9
2019-01-31T13:15:09.363Z,767.2
2019-01-31T13:16:11.406Z,766.8
2019-01-31T13:17:13.834Z,766.8
2019-01-31T13:18:15.729Z,766.5
2019-01-31T13:19:17.881Z,766.8
2019-01-31T13:20:20.340Z,766.7
2019-01-31T13:21:22.997Z,766.6
2019-01-31T13:22:25.152Z,766.9
2019-01-31T13:23:27.684Z,766.8
2019-01-31T13:24:30.111Z,767
2019-01-31T13:25:32.312Z,767.1
2019-01-31T13:26:34.477Z,767.5
2019-01-31T13:27:36.904Z,767.3
2019-01-31T13:28:39.364Z,767.5
2019-01-31T13:29:41.801Z,767.3
2019-01-31T13:30:44.239Z,767.1
2019-01-31T13:31:46.672Z,767.5
2019-01-31T13:32:49.213Z,767.4
2019-01-31T13:33:51.626Z,767.7
2019-01-31T13:34:53.775Z,767.3
2019-01-31T13:35:56.204Z,767.4
2019-01-31T13:36:58.344Z,767.8
2019-01-31T13:38:00.763Z,767.2
2019-01-31T13:39:03.204Z,767.5
2019-01-31T13:40:05.635Z,767.4
2019-01-31T13:41:07.515Z,767.4
2019-01-31T13:42:09.942Z,767.1
2019-01-31T13:43:12.075Z,767.2
2019-01-31T13:44:13.953Z,767.5
2019-01-31T13:45:15.837Z,767.2
2019-01-31T13:46:18.265Z,767.2
2019-01-31T13:47:20.423Z,767.5
2019-01-31T13:48:22.839Z,767